createdAt,value
2023-03-01T00:00:36.746Z,70.08
2023-03-01T00:01:39.168Z,70.16
2023-03-01T00:02:41.569Z,70.34
2023-03-01T00:03:44.363Z,69.89
2023-03-01T00:04:47.387Z,69.67
2023-03-01T00:05:49.842Z,69.86
2023-03-01T00:06:52.229Z,69.70
2023-03-01T00:07:55.192Z,69.60
2023-03-01T00:08:57.890Z,69.77
2023-03-01T00:10:00.266Z,69.77
2023-03-01T00:11:18.014Z,69.46
2023-03-01T00:12:20.742Z,69.11
2023-03-01T00:13:23.122Z,69.43
2023-03-01T00:14:25.528Z,69.02
2023-03-01T00:15:27.894Z,68.92
2023-03-01T00:16:34.700Z,68.92
2023-03-01T00:17:37.116Z,68.96
2023-03-01T00:18:39.985Z,69.02
2023-03-01T00:19:42.397Z,68.99
2023-03-01T00:20:53.764Z,68.87
2023-03-01T00:21:56.157Z,69.00
2023-03-01T00:22:58.504Z,69.07
2023-03-01T00:24:01.028Z,69.01
2023-03-01T00:25:04.412Z,69.11
2023-03-01T00:26:09.025Z,69.16
2023-03-01T00:27:11.484Z,69.23
2023-03-01T00:28:13.899Z,69.18
2023-03-01T00:29:16.360Z,69.22
2023-03-01T00:30:18.937Z,69.30
2023-03-01T00:31:24.110Z,69.30
2023-03-01T00:32:26.861Z,69.28
2023-03-01T00:33:29.250Z,69.30
2023-03-01T00:34:31.634Z,69.42
2023-03-01T00:35:35.073Z,69.12
2023-03-01T00:36:38.663Z,69.28
2023-03-01T00:37:42.455Z,69.47
2023-03-01T00:38:46.542Z,69.37
2023-03-01T00:39:49.234Z,69.56
2023-03-01T00:40:51.627Z,69.55
2023-03-01T00:41:54.010Z,69.48
2023-03-01T00:42:56.425Z,69.59
2023-03-01T00:43:58.950Z,69.42
2023-03-01T00:45:01.296Z,69.35
2023-03-01T00:46:15.125Z,69.08
2023-03-01T00:47:17.528Z,69.03
2023-03-01T00:48:19.918Z,68.82
2023-03-01T00:49:22.441Z,68.97
2023-03-01T00:50:24.909Z,68.91
2023-03-01T00:51:28.434Z,68.68
2023-03-01T00:52:30.785Z,68.64
2023-03-01T00:53:33.611Z,68.71
2023-03-01T00:54:35.926Z,68.82
2023-03-01T00:55:38.279Z,68.70
2023-03-01T00:56:40.621Z,68.65
2023-03-01T00:57:42.944Z,68.61
2023-03-01T00:58:45.342Z,68.67
2023-03-01T00:59:47.695Z,68.74
2023-03-01T01:00:50.061Z,68.53
2023-03-01T01:01:52.473Z,68.56
2023-03-01T01:02:55.035Z,68.37
2023-03-01T01:03:58.412Z,68.42
2023-03-01T01:05:01.012Z,68.36
2023-03-01T01:06:10.386Z,68.34
2023-03-01T01:07:12.848Z,68.76
2023-03-01T01:08:15.162Z,68.43
2023-03-01T01:09:18.578Z,68.44
2023-03-01T01:10:20.992Z,68.49
2023-03-01T01:11:27.832Z,68.86
2023-03-01T01:12:30.507Z,68.81
2023-03-01T01:13:32.877Z,68.96
2023-03-01T01:14:35.605Z,69.09
2023-03-01T01:15:38.056Z,69.21
2023-03-01T01:16:40.460Z,69.28
2023-03-01T01:17:42.946Z,69.41
2023-03-01T01:18:46.398Z,69.79
2023-03-01T01:19:49.047Z,69.80
2023-03-01T01:20:51.413Z,70.07
2023-03-01T01:21:53.740Z,70.22
2023-03-01T01:22:56.570Z,70.26
2023-03-01T01:23:59.391Z,70.01
2023-03-01T01:25:01.799Z,69.72
2023-03-01T01:26:11.171Z,69.92
2023-03-01T01:27:13.513Z,69.97
2023-03-01T01:28:15.922Z,70.13
2023-03-01T01:29:18.281Z,70.12
2023-03-01T01:30:20.643Z,69.92
2023-03-01T01:31:24.823Z,69.94
2023-03-01T01:32:27.536Z,70.14
2023-03-01T01:33:30.011Z,70.30
2023-03-01T01:34:32.376Z,70.10
2023-03-01T01:35:34.759Z,70.08
2023-03-01T01:36:37.219Z,69.60
2023-03-01T01:37:39.595Z,69.60
2023-03-01T01:38:43.361Z,69.69
2023-03-01T01:39:45.720Z,69.93
2023-03-01T01:40:49.006Z,69.96
2023-03-01T01:41:51.326Z,69.97
2023-03-01T01:42:53.696Z,69.77
2023-03-01T01:44:14.099Z,69.45
2023-03-01T01:45:35.965Z,69.75
2023-03-01T01:46:41.906Z,69.69
2023-03-01T01:47:44.395Z,69.84
2023-03-01T01:48:51.141Z,69.56
2023-03-01T01:49:56.334Z,69.52
2023-03-01T01:51:02.373Z,69.66
2023-03-01T01:52:10.476Z,69.65
2023-03-01T01:53:19.317Z,69.40
2023-03-01T01:54:27.601Z,69.68
2023-03-01T01:55:30.644Z,69.79
2023-03-01T01:56:33.787Z,69.89
2023-03-01T01:57:43.176Z,69.59
2023-03-01T01:58:46.414Z,69.62
2023-03-01T02:00:00.168Z,69.52
2023-03-01T02:01:03.888Z,69.60
2023-03-01T02:02:06.660Z,69.63
2023-03-01T02:03:12.171Z,69.65
2023-03-01T02:04:14.847Z,69.83
2023-03-01T02:05:23.729Z,69.66
2023-03-01T02:06:31.155Z,69.65
2023-03-01T02:07:34.102Z,69.26
2023-03-01T02:08:40.234Z,69.16
2023-03-01T02:09:47.437Z,69.09
2023-03-01T02:10:50.871Z,69.32
2023-03-01T02:11:53.323Z,69.48
2023-03-01T02:12:57.175Z,69.57
2023-03-01T02:13:59.850Z,69.25
2023-03-01T02:15:02.279Z,69.51
2023-03-01T02:16:06.711Z,69.61
2023-03-01T02:17:09.700Z,69.55
2023-03-01T02:18:14.540Z,69.55
2023-03-01T02:19:31.938Z,69.46
2023-03-01T02:20:50.244Z,69.43
2023-03-01T02:22:28.149Z,69.58
2023-03-01T02:23:31.075Z,69.67
2023-03-01T02:24:46.125Z,69.66
2023-03-01T02:25:55.485Z,69.72
2023-03-01T02:26:59.032Z,69.86
2023-03-01T02:28:19.309Z,69.81
2023-03-01T02:29:23.438Z,69.36
2023-03-01T02:30:26.607Z,69.33
2023-03-01T02:31:44.209Z,69.44
2023-03-01T02:32:47.171Z,69.39
2023-03-01T02:33:49.785Z,69.44
2023-03-01T02:34:56.745Z,69.41
2023-03-01T02:36:01.925Z,69.85
2023-03-01T02:37:09.430Z,69.48
2023-03-01T02:38:11.813Z,69.38
2023-03-01T02:39:18.268Z,69.33
2023-03-01T02:40:22.663Z,69.57
2023-03-01T02:41:27.730Z,69.48
2023-03-01T02:42:38.204Z,69.12
2023-03-01T02:43:40.720Z,69.15
2023-03-01T02:44:43.186Z,69.10
2023-03-01T02:45:53.795Z,69.09
2023-03-01T02:46:58.031Z,68.94
2023-03-01T02:48:00.426Z,69.13
2023-03-01T02:49:02.789Z,69.41
2023-03-01T02:50:23.810Z,69.33
2023-03-01T02:51:40.722Z,69.10
2023-03-01T02:53:12.173Z,68.92
2023-03-01T02:54:34.746Z,68.56
2023-03-01T02:55:37.144Z,68.58
2023-03-01T02:56:39.622Z,68.75
2023-03-01T02:57:44.934Z,68.80
2023-03-01T02:58:51.957Z,68.83
2023-03-01T02:59:56.183Z,68.72
2023-03-01T03:00:58.789Z,68.60
2023-03-01T03:02:01.933Z,68.61
2023-03-01T03:03:04.491Z,68.68
2023-03-01T03:04:10.866Z,68.90
2023-03-01T03:05:19.713Z,68.88
2023-03-01T03:06:22.163Z,68.76
2023-03-01T03:07:24.534Z,68.85
2023-03-01T03:08:26.920Z,68.97
2023-03-01T03:09:29.521Z,69.11
2023-03-01T03:10:34.897Z,69.03
2023-03-01T03:11:37.960Z,69.02
2023-03-01T03:12:40.909Z,69.11
2023-03-01T03:13:49.152Z,69.00
2023-03-01T03:14:51.614Z,68.97
2023-03-01T03:15:54.023Z,69.05
2023-03-01T03:16:56.508Z,69.08
2023-03-01T03:18:00.051Z,69.09
2023-03-01T03:19:06.154Z,69.10
2023-03-01T03:20:12.865Z,69.04
2023-03-01T03:21:16.284Z,69.08
2023-03-01T03:22:18.652Z,69.03
2023-03-01T03:23:22.407Z,68.81
2023-03-01T03:24:24.803Z,68.58
2023-03-01T03:25:29.358Z,68.61
2023-03-01T03:26:32.525Z,68.70
2023-03-01T03:27:35.065Z,68.76
2023-03-01T03:28:40.959Z,68.72
2023-03-01T03:29:43.330Z,68.79
2023-03-01T03:30:46.035Z,68.33
2023-03-01T03:31:48.462Z,68.42
2023-03-01T03:32:53.811Z,68.52
2023-03-01T03:33:57.094Z,68.67
2023-03-01T03:34:59.483Z,68.56
2023-03-01T03:36:01.995Z,68.51
2023-03-01T03:37:04.412Z,68.60
2023-03-01T03:38:16.453Z,68.66
2023-03-01T03:39:20.652Z,68.62
2023-03-01T03:40:23.055Z,68.58
2023-03-01T03:41:25.429Z,68.77
2023-03-01T03:42:27.770Z,68.88
2023-03-01T03:43:32.075Z,69.05
2023-03-01T03:44:34.454Z,69.22
2023-03-01T03:45:37.465Z,69.25
2023-03-01T03:46:39.828Z,69.36
2023-03-01T03:47:43.131Z,69.68
2023-03-01T03:48:46.775Z,69.69
2023-03-01T03:49:49.125Z,69.86
2023-03-01T03:50:53.997Z,70.13
2023-03-01T03:51:56.349Z,69.97
2023-03-01T03:52:58.740Z,70.06
2023-03-01T03:54:01.184Z,70.18
2023-03-01T03:55:04.481Z,69.70
2023-03-01T03:56:07.436Z,69.59
2023-03-01T03:57:09.828Z,69.35
2023-03-01T03:58:12.213Z,69.37
2023-03-01T03:59:14.678Z,69.46
2023-03-01T04:00:17.466Z,69.39
2023-03-01T04:01:20.097Z,69.33
2023-03-01T04:02:25.502Z,69.20
2023-03-01T04:03:29.031Z,69.29
2023-03-01T04:04:31.441Z,69.40
2023-03-01T04:05:34.174Z,69.03
2023-03-01T04:06:36.571Z,69.08
2023-03-01T04:07:39.461Z,69.16
2023-03-01T04:08:41.933Z,69.28
2023-03-01T04:09:44.884Z,68.72
2023-03-01T04:10:49.018Z,68.93
2023-03-01T04:11:51.376Z,68.95
2023-03-01T04:12:53.744Z,68.63
2023-03-01T04:13:58.859Z,68.68
2023-03-01T04:15:13.703Z,69.00
2023-03-01T04:16:16.739Z,68.84
2023-03-01T04:17:20.124Z,68.87
2023-03-01T04:18:24.288Z,68.66
2023-03-01T04:19:28.093Z,68.87
2023-03-01T04:20:34.600Z,68.84
2023-03-01T04:21:37.304Z,69.03
2023-03-01T04:22:40.583Z,69.02
2023-03-01T04:23:43.872Z,69.15
2023-03-01T04:24:46.278Z,69.27
2023-03-01T04:25:59.517Z,69.22
2023-03-01T04:27:02.384Z,69.19
2023-03-01T04:28:04.887Z,68.93
2023-03-01T04:29:07.255Z,69.05
2023-03-01T04:30:10.545Z,69.12
2023-03-01T04:31:19.464Z,69.12
2023-03-01T04:32:21.872Z,69.12
2023-03-01T04:33:25.074Z,69.17
2023-03-01T04:34:30.252Z,69.39
2023-03-01T04:35:33.107Z,69.38
2023-03-01T04:36:36.869Z,69.42
2023-03-01T04:37:39.633Z,69.43
2023-03-01T04:38:42.963Z,69.32
2023-03-01T04:39:48.418Z,69.40
2023-03-01T04:40:50.794Z,69.52
2023-03-01T04:41:53.693Z,69.49
2023-03-01T04:42:56.136Z,69.56
2023-03-01T04:44:01.153Z,69.46
2023-03-01T04:45:03.734Z,69.17
2023-03-01T04:46:10.246Z,69.11
2023-03-01T04:47:13.736Z,69.32
2023-03-01T04:48:16.165Z,69.40
2023-03-01T04:49:18.631Z,69.33
2023-03-01T04:50:22.752Z,69.30
2023-03-01T04:51:25.236Z,69.28
2023-03-01T04:52:27.581Z,69.33
2023-03-01T04:53:30.503Z,69.14
2023-03-01T04:54:33.785Z,69.07
2023-03-01T04:55:36.148Z,69.07
2023-03-01T04:56:38.540Z,69.13
2023-03-01T04:57:41.284Z,69.07
2023-03-01T04:58:44.052Z,68.97
2023-03-01T04:59:46.420Z,68.97
2023-03-01T05:00:48.789Z,69.05
2023-03-01T05:01:58.060Z,69.07
2023-03-01T05:03:01.803Z,69.16
2023-03-01T05:04:06.344Z,69.35
2023-03-01T05:05:08.758Z,69.18
2023-03-01T05:06:11.911Z,69.08
2023-03-01T05:07:20.423Z,69.03
2023-03-01T05:08:22.865Z,69.08
2023-03-01T05:09:25.225Z,69.14
2023-03-01T05:10:32.891Z,69.19
2023-03-01T05:11:36.950Z,69.31
2023-03-01T05:12:39.341Z,69.34
2023-03-01T05:13:41.745Z,69.52
2023-03-01T05:14:44.140Z,69.54
2023-03-01T05:15:46.511Z,69.35
2023-03-01T05:16:48.891Z,69.27
2023-03-01T05:17:51.332Z,69.25
2023-03-01T05:18:53.681Z,69.42
2023-03-01T05:19:56.698Z,69.28
2023-03-01T05:21:07.978Z,69.14
2023-03-01T05:22:10.425Z,69.15
2023-03-01T05:23:12.969Z,69.29
2023-03-01T05:24:15.401Z,69.29
2023-03-01T05:25:17.986Z,69.18
2023-03-01T05:26:28.273Z,69.18
2023-03-01T05:27:31.300Z,69.23
2023-03-01T05:28:33.754Z,69.15
2023-03-01T05:29:36.109Z,69.17
2023-03-01T05:30:40.174Z,69.15
2023-03-01T05:31:42.488Z,69.12
2023-03-01T05:32:47.469Z,68.86
2023-03-01T05:34:31.138Z,68.95
2023-03-01T05:35:34.017Z,69.09
2023-03-01T05:36:36.437Z,69.04
2023-03-01T05:37:38.802Z,69.14
2023-03-01T05:38:41.180Z,69.00
2023-03-01T05:39:43.545Z,68.97
2023-03-01T05:40:48.564Z,69.05
2023-03-01T05:41:58.971Z,69.00
2023-03-01T05:43:01.524Z,69.23
2023-03-01T05:44:05.898Z,69.33
2023-03-01T05:45:10.646Z,69.40
2023-03-01T05:46:14.494Z,68.92
2023-03-01T05:47:16.926Z,68.75
2023-03-01T05:48:20.665Z,68.69
2023-03-01T05:49:26.973Z,68.71
2023-03-01T05:50:31.109Z,68.93
2023-03-01T05:51:34.991Z,68.80
2023-03-01T05:52:37.353Z,68.69
2023-03-01T05:53:39.736Z,68.60
2023-03-01T05:54:42.088Z,68.68
2023-03-01T05:55:45.294Z,68.53
2023-03-01T05:56:48.037Z,68.64
2023-03-01T05:57:51.146Z,68.92
2023-03-01T05:58:53.511Z,69.28
2023-03-01T05:59:55.968Z,68.85
2023-03-01T06:00:58.851Z,68.90
2023-03-01T06:02:01.296Z,68.67
2023-03-01T06:03:04.322Z,68.89
2023-03-01T06:04:06.745Z,68.69
2023-03-01T06:05:10.934Z,68.87
2023-03-01T06:06:13.383Z,69.07
2023-03-01T06:07:15.780Z,68.69
2023-03-01T06:08:18.186Z,68.43
2023-03-01T06:09:23.556Z,68.71
2023-03-01T06:10:25.898Z,68.50
2023-03-01T06:11:30.399Z,68.14
2023-03-01T06:12:37.685Z,68.15
2023-03-01T06:13:40.043Z,68.07
2023-03-01T06:14:42.412Z,68.07
2023-03-01T06:15:44.802Z,67.44
2023-03-01T06:16:47.189Z,66.76
2023-03-01T06:17:50.233Z,66.58
2023-03-01T06:18:52.588Z,66.67
2023-03-01T06:19:54.959Z,66.65
2023-03-01T06:20:57.476Z,66.64
2023-03-01T06:21:59.881Z,66.62
2023-03-01T06:23:02.371Z,66.60
2023-03-01T06:24:07.052Z,66.48
2023-03-01T06:25:10.035Z,66.45
2023-03-01T06:26:12.385Z,65.99
2023-03-01T06:27:14.749Z,66.12
2023-03-01T06:28:17.321Z,66.37
2023-03-01T06:29:19.696Z,65.96
2023-03-01T06:30:23.438Z,66.20
2023-03-01T06:31:25.851Z,65.72
2023-03-01T06:32:28.260Z,65.40
2023-03-01T06:33:30.628Z,65.56
2023-03-01T06:34:33.266Z,65.48
2023-03-01T06:35:35.834Z,65.61
2023-03-01T06:36:38.238Z,65.38
2023-03-01T06:37:41.535Z,65.18
2023-03-01T06:38:44.281Z,64.91
2023-03-01T06:39:46.617Z,64.93
2023-03-01T06:40:56.203Z,64.88
2023-03-01T06:41:59.492Z,65.07
2023-03-01T06:43:02.206Z,64.74
2023-03-01T06:44:04.875Z,63.95
2023-03-01T06:45:08.423Z,62.99
2023-03-01T06:46:10.833Z,62.98
2023-03-01T06:47:13.256Z,62.63
2023-03-01T06:48:15.927Z,62.23
2023-03-01T06:49:18.911Z,62.19
2023-03-01T06:50:21.293Z,62.15
2023-03-01T06:51:23.685Z,61.17
2023-03-01T06:52:26.794Z,60.87
2023-03-01T06:53:30.260Z,61.45
2023-03-01T06:54:32.620Z,62.16
2023-03-01T06:55:35.043Z,61.63
2023-03-01T06:56:37.467Z,61.30
2023-03-01T06:57:40.897Z,60.69
2023-03-01T06:58:43.274Z,60.38
2023-03-01T06:59:45.733Z,60.62
2023-03-01T07:00:48.107Z,60.99
2023-03-01T07:01:50.446Z,60.74
2023-03-01T07:02:53.030Z,60.00
2023-03-01T07:03:55.465Z,59.83
2023-03-01T07:04:57.882Z,59.77
2023-03-01T07:06:00.377Z,60.14
2023-03-01T07:07:02.743Z,60.08
2023-03-01T07:08:05.244Z,59.84
2023-03-01T07:09:07.630Z,59.70
2023-03-01T07:10:11.078Z,59.70
2023-03-01T07:11:13.567Z,59.49
2023-03-01T07:12:16.370Z,59.94
2023-03-01T07:13:18.750Z,59.62
2023-03-01T07:14:21.120Z,59.03
2023-03-01T07:15:23.600Z,58.72
2023-03-01T07:16:26.016Z,59.35
2023-03-01T07:17:28.500Z,59.34
2023-03-01T07:18:30.877Z,59.44
2023-03-01T07:19:33.260Z,59.24
2023-03-01T07:20:35.971Z,59.66
2023-03-01T07:21:41.730Z,59.64
2023-03-01T07:22:44.365Z,59.75
2023-03-01T07:23:48.962Z,59.25
2023-03-01T07:24:51.346Z,58.98
2023-03-01T07:25:56.590Z,58.99
2023-03-01T07:27:01.900Z,58.57
2023-03-01T07:28:04.457Z,58.87
2023-03-01T07:29:08.793Z,58.82
2023-03-01T07:30:11.621Z,58.89
2023-03-01T07:31:14.180Z,59.07
2023-03-01T07:32:16.633Z,59.49
2023-03-01T07:33:19.122Z,59.11
2023-03-01T07:34:21.551Z,59.54
2023-03-01T07:35:26.050Z,59.42
2023-03-01T07:36:28.920Z,59.34
2023-03-01T07:37:31.378Z,59.66
2023-03-01T07:38:33.972Z,58.74
2023-03-01T07:39:36.340Z,58.36
2023-03-01T07:40:38.830Z,58.01
2023-03-01T07:41:41.248Z,57.62
2023-03-01T07:42:43.645Z,57.74
2023-03-01T07:43:46.014Z,57.88
2023-03-01T07:44:48.391Z,57.92
2023-03-01T07:45:53.167Z,57.86
2023-03-01T07:46:57.432Z,57.88
2023-03-01T07:47:59.817Z,57.87
2023-03-01T07:49:02.278Z,58.10
2023-03-01T07:50:05.089Z,57.85
2023-03-01T07:51:08.578Z,57.89
2023-03-01T07:52:13.076Z,57.91
2023-03-01T07:53:15.445Z,57.17
2023-03-01T07:54:17.828Z,57.42
2023-03-01T07:55:21.110Z,57.85
2023-03-01T07:56:23.624Z,58.24
2023-03-01T07:57:26.228Z,58.76
2023-03-01T07:58:28.608Z,58.69
2023-03-01T07:59:31.049Z,58.56
2023-03-01T08:00:33.507Z,58.12
2023-03-01T08:01:35.924Z,58.28
2023-03-01T08:02:38.350Z,58.20
2023-03-01T08:03:40.969Z,57.90
2023-03-01T08:04:43.924Z,57.92
2023-03-01T08:05:46.319Z,58.05
2023-03-01T08:06:48.704Z,58.02
2023-03-01T08:07:51.253Z,58.17
2023-03-01T08:08:56.397Z,58.21
2023-03-01T08:09:58.924Z,58.21
2023-03-01T08:11:03.248Z,58.44
2023-03-01T08:12:06.763Z,58.85
2023-03-01T08:13:09.160Z,59.13
2023-03-01T08:14:14.358Z,58.98
2023-03-01T08:15:16.759Z,59.23
2023-03-01T08:16:19.157Z,58.66
2023-03-01T08:17:22.305Z,58.40
2023-03-01T08:18:26.450Z,57.61
2023-03-01T08:19:29.285Z,57.91
2023-03-01T08:20:31.900Z,58.07
2023-03-01T08:21:35.848Z,57.76
2023-03-01T08:22:38.279Z,57.71
2023-03-01T08:23:41.277Z,57.58
2023-03-01T08:24:43.794Z,57.48
2023-03-01T08:25:46.176Z,57.54
2023-03-01T08:26:48.638Z,57.86
2023-03-01T08:27:51.139Z,57.67
2023-03-01T08:28:53.635Z,57.93
2023-03-01T08:29:56.007Z,57.46
2023-03-01T08:30:58.355Z,57.19
2023-03-01T08:32:00.988Z,57.04
2023-03-01T08:33:03.521Z,56.84
2023-03-01T08:34:09.276Z,56.77
2023-03-01T08:35:11.737Z,56.73
2023-03-01T08:36:14.070Z,57.12
2023-03-01T08:37:16.409Z,57.28
2023-03-01T08:38:18.891Z,57.29
2023-03-01T08:39:21.982Z,57.58
2023-03-01T08:40:24.401Z,57.70
2023-03-01T08:41:27.293Z,57.49
2023-03-01T08:42:29.634Z,57.22
2023-03-01T08:43:32.090Z,57.23
2023-03-01T08:44:36.097Z,57.00
2023-03-01T08:45:38.579Z,57.27
2023-03-01T08:46:42.312Z,57.07
2023-03-01T08:47:46.161Z,56.82
2023-03-01T08:48:49.681Z,57.36
2023-03-01T08:49:52.179Z,57.40
2023-03-01T08:50:54.578Z,57.12
2023-03-01T08:51:57.061Z,57.05
2023-03-01T08:52:59.472Z,56.55
2023-03-01T08:54:04.811Z,56.43
2023-03-01T08:55:08.001Z,56.02
2023-03-01T08:56:10.459Z,56.17
2023-03-01T08:57:13.800Z,56.17
2023-03-01T08:58:16.210Z,55.79
2023-03-01T08:59:19.825Z,55.73
2023-03-01T09:00:22.849Z,55.69
2023-03-01T09:01:25.504Z,55.98
2023-03-01T09:02:27.996Z,55.60
2023-03-01T09:03:30.408Z,55.78
2023-03-01T09:04:33.030Z,55.72
2023-03-01T09:05:37.208Z,56.03
2023-03-01T09:06:39.608Z,55.52
2023-03-01T09:07:41.979Z,55.62
2023-03-01T09:08:46.813Z,55.55
2023-03-01T09:09:49.184Z,55.11
2023-03-01T09:10:51.728Z,54.84
2023-03-01T09:11:54.134Z,54.94
2023-03-01T09:12:56.506Z,54.69
2023-03-01T09:13:58.890Z,54.75
2023-03-01T09:15:01.274Z,54.55
2023-03-01T09:16:05.859Z,54.87
2023-03-01T09:17:08.297Z,54.93
2023-03-01T09:18:10.767Z,54.57
2023-03-01T09:19:13.290Z,54.55
2023-03-01T09:20:15.650Z,54.35
2023-03-01T09:21:25.006Z,54.82
2023-03-01T09:22:30.050Z,54.75
2023-03-01T09:23:32.416Z,54.67
2023-03-01T09:24:34.771Z,54.55
2023-03-01T09:25:37.091Z,54.11
2023-03-01T09:26:39.500Z,54.05
2023-03-01T09:27:41.887Z,54.22
2023-03-01T09:28:45.571Z,54.05
2023-03-01T09:29:47.931Z,54.63
2023-03-01T09:30:50.292Z,54.76
2023-03-01T09:31:56.146Z,54.71
2023-03-01T09:32:58.588Z,54.68
2023-03-01T09:34:00.961Z,54.86
2023-03-01T09:35:06.218Z,54.97
2023-03-01T09:36:14.551Z,55.32
2023-03-01T09:37:17.014Z,55.65
2023-03-01T09:38:19.439Z,55.73
2023-03-01T09:39:21.842Z,55.49
2023-03-01T09:40:25.511Z,54.99
2023-03-01T09:41:36.701Z,54.66
2023-03-01T09:42:48.283Z,54.53
2023-03-01T09:44:01.490Z,54.35
2023-03-01T09:45:13.222Z,53.56
2023-03-01T09:46:20.047Z,53.81
2023-03-01T09:47:29.527Z,54.69
2023-03-01T09:48:58.822Z,53.29
2023-03-01T09:50:08.486Z,54.16
2023-03-01T09:51:20.603Z,54.11
2023-03-01T09:52:39.910Z,53.88
2023-03-01T09:53:42.674Z,53.61
2023-03-01T09:54:45.064Z,53.47
2023-03-01T09:55:52.291Z,52.73
2023-03-01T09:57:05.089Z,52.59
2023-03-01T09:58:36.306Z,52.89
2023-03-01T09:59:57.394Z,52.87
2023-03-01T10:01:11.841Z,53.01
2023-03-01T10:02:42.388Z,52.92
2023-03-01T10:03:50.337Z,53.64
2023-03-01T10:04:56.931Z,52.62
2023-03-01T10:06:34.370Z,52.36
2023-03-01T10:08:03.999Z,52.93
2023-03-01T10:09:15.244Z,52.79
2023-03-01T10:10:28.492Z,52.50
2023-03-01T10:11:38.856Z,52.73
2023-03-01T10:12:43.643Z,52.34
2023-03-01T10:13:55.484Z,52.37
2023-03-01T10:15:16.617Z,52.61
2023-03-01T10:16:26.382Z,52.62
2023-03-01T10:17:35.970Z,52.49
2023-03-01T10:18:41.620Z,52.50
2023-03-01T10:19:47.980Z,52.77
2023-03-01T10:21:01.997Z,53.12
2023-03-01T10:22:30.778Z,52.42
2023-03-01T10:23:35.865Z,52.65
2023-03-01T10:24:38.352Z,52.63
2023-03-01T10:25:46.117Z,52.80
2023-03-01T10:26:53.203Z,52.74
2023-03-01T10:28:03.002Z,52.22
2023-03-01T10:29:11.417Z,52.15
2023-03-01T10:30:34.050Z,52.07
2023-03-01T10:31:42.140Z,52.23
2023-03-01T10:32:45.684Z,52.91
2023-03-01T10:33:52.596Z,52.67
2023-03-01T10:34:55.058Z,52.01
2023-03-01T10:35:58.233Z,52.72
2023-03-01T10:37:09.452Z,52.85
2023-03-01T10:38:14.652Z,52.71
2023-03-01T10:39:22.920Z,52.20
2023-03-01T10:40:25.699Z,51.86
2023-03-01T10:41:31.336Z,52.07
2023-03-01T10:45:46.593Z,51.25
2023-03-01T10:47:06.182Z,51.55
2023-03-01T10:48:27.490Z,51.31
2023-03-01T10:49:29.909Z,51.26
2023-03-01T10:50:32.990Z,52.16
2023-03-01T10:51:35.483Z,51.74
2023-03-01T10:52:41.857Z,51.99
2023-03-01T10:53:49.948Z,51.48
2023-03-01T10:55:17.409Z,51.10
2023-03-01T10:56:19.957Z,51.01
2023-03-01T10:57:44.397Z,51.09
2023-03-01T10:59:05.105Z,50.92
2023-03-01T11:00:26.221Z,50.82
2023-03-01T11:01:33.290Z,50.17
2023-03-01T11:02:37.857Z,49.98
2023-03-01T11:03:40.595Z,50.24
2023-03-01T11:05:13.626Z,51.49
2023-03-01T11:06:23.251Z,49.60
2023-03-01T11:07:25.791Z,49.30
2023-03-01T11:08:51.727Z,49.41
2023-03-01T11:09:54.244Z,49.76
2023-03-01T11:11:06.593Z,50.09
2023-03-01T11:12:16.520Z,49.71
2023-03-01T11:13:20.563Z,49.53
2023-03-01T11:14:28.697Z,49.19
2023-03-01T11:15:31.480Z,49.44
2023-03-01T11:16:37.198Z,49.32
2023-03-01T11:17:53.779Z,49.57
2023-03-01T11:19:11.688Z,50.94
2023-03-01T11:20:14.115Z,50.00
2023-03-01T11:21:17.622Z,49.93
2023-03-01T11:22:22.873Z,49.63
2023-03-01T11:23:26.940Z,48.44
2023-03-01T11:25:07.389Z,47.98
2023-03-01T11:26:14.352Z,48.24
2023-03-01T11:27:27.345Z,48.41
2023-03-01T11:28:30.868Z,48.98
2023-03-01T11:29:47.896Z,49.22
2023-03-01T11:31:08.371Z,48.43
2023-03-01T11:32:15.008Z,48.53
2023-03-01T11:33:17.439Z,48.78
2023-03-01T11:34:37.510Z,48.61
2023-03-01T11:35:45.607Z,48.53
2023-03-01T11:36:58.274Z,49.12
2023-03-01T11:38:21.224Z,48.49
2023-03-01T11:39:28.904Z,48.51
2023-03-01T11:40:37.372Z,48.59
2023-03-01T11:41:42.670Z,49.11
2023-03-01T11:42:57.704Z,49.65
2023-03-01T11:44:26.999Z,50.11
2023-03-01T11:45:51.806Z,49.36
2023-03-01T11:47:03.781Z,49.48
2023-03-01T11:48:47.100Z,48.69
2023-03-01T11:49:58.177Z,49.33
2023-03-01T11:51:07.238Z,49.45
2023-03-01T11:52:43.458Z,49.75
2023-03-01T11:53:45.772Z,49.46
2023-03-01T11:55:19.016Z,49.56
2023-03-01T11:56:43.125Z,49.73
2023-03-01T11:58:22.733Z,49.39
2023-03-01T11:59:50.993Z,49.37
2023-03-01T12:01:26.777Z,49.45
2023-03-01T12:03:14.260Z,49.40
2023-03-01T12:04:55.157Z,49.21
2023-03-01T12:06:17.294Z,50.15
2023-03-01T12:07:40.000Z,50.18
2023-03-01T12:08:44.005Z,51.42
2023-03-01T12:10:11.309Z,50.90
2023-03-01T12:11:35.130Z,50.47
2023-03-01T12:13:18.433Z,50.07
2023-03-01T12:14:23.560Z,50.42
2023-03-01T12:15:40.704Z,50.17
2023-03-01T12:17:37.261Z,50.16
2023-03-01T12:19:27.732Z,48.86
2023-03-01T12:20:44.943Z,48.42
2023-03-01T12:22:03.199Z,49.67
2023-03-01T12:23:28.262Z,49.52
2023-03-01T12:24:52.404Z,49.64
2023-03-01T12:26:03.515Z,49.74
2023-03-01T12:27:05.816Z,49.77
2023-03-01T12:28:26.599Z,49.70
2023-03-01T12:29:31.995Z,50.08
2023-03-01T12:30:59.597Z,50.12
2023-03-01T12:32:10.762Z,50.26
2023-03-01T12:33:31.450Z,50.55
2023-03-01T12:34:44.556Z,49.71
2023-03-01T12:36:02.259Z,48.77
2023-03-01T12:37:26.417Z,49.75
2023-03-01T12:38:43.793Z,49.16
2023-03-01T12:40:24.843Z,49.58
2023-03-01T12:41:42.422Z,49.31
2023-03-01T12:42:48.489Z,49.43
2023-03-01T12:44:19.959Z,49.44
2023-03-01T12:46:10.347Z,49.26
2023-03-01T12:47:50.112Z,49.43
2023-03-01T12:49:02.128Z,49.74
2023-03-01T12:50:19.414Z,49.77
2023-03-01T12:51:28.300Z,49.65
2023-03-01T12:52:54.514Z,49.29
2023-03-01T12:53:58.745Z,50.04
2023-03-01T12:55:05.276Z,49.94
2023-03-01T12:56:13.017Z,49.45
2023-03-01T12:57:41.712Z,49.19
2023-03-01T12:58:58.903Z,49.54
2023-03-01T13:01:39.454Z,49.83
2023-03-01T13:03:33.394Z,50.32
2023-03-01T13:04:42.423Z,49.90
2023-03-01T13:06:07.910Z,50.12
2023-03-01T13:07:32.258Z,50.90
2023-03-01T13:08:42.274Z,49.79
2023-03-01T13:10:07.107Z,48.89
2023-03-01T13:11:27.758Z,49.12
2023-03-01T13:12:57.670Z,49.26
2023-03-01T13:14:22.671Z,49.40
2023-03-01T13:15:27.004Z,49.31
2023-03-01T13:16:31.639Z,49.48
2023-03-01T13:17:45.779Z,49.01
2023-03-01T13:18:50.824Z,48.67
2023-03-01T13:20:02.836Z,49.14
2023-03-01T13:21:08.471Z,49.48
2023-03-01T13:22:33.412Z,49.64
2023-03-01T13:23:40.807Z,49.87
2023-03-01T13:24:44.221Z,50.68
2023-03-01T13:26:09.273Z,50.15
2023-03-01T13:27:19.254Z,49.55
2023-03-01T13:28:36.653Z,49.38
2023-03-01T13:29:45.206Z,49.13
2023-03-01T13:30:47.551Z,49.23
2023-03-01T13:32:02.819Z,49.58
2023-03-01T13:33:26.860Z,49.20
2023-03-01T13:34:53.325Z,49.78
2023-03-01T13:35:59.919Z,49.79
2023-03-01T13:37:19.953Z,50.12
2023-03-01T13:38:45.411Z,49.56
2023-03-01T13:39:48.175Z,50.00
2023-03-01T13:40:50.516Z,49.22
2023-03-01T13:41:54.895Z,48.75
2023-03-01T13:43:28.980Z,48.83
2023-03-01T13:44:34.967Z,48.85
2023-03-01T13:45:42.105Z,49.13
2023-03-01T13:46:45.892Z,49.62
2023-03-01T13:47:54.153Z,50.24
2023-03-01T13:48:58.404Z,50.31
2023-03-01T13:50:05.133Z,50.08
2023-03-01T13:51:12.191Z,49.76
2023-03-01T13:52:38.291Z,49.24
2023-03-01T13:53:46.675Z,49.34
2023-03-01T13:54:49.185Z,49.63
2023-03-01T13:56:17.110Z,49.65
2023-03-01T13:57:25.024Z,50.13
2023-03-01T13:58:30.596Z,50.12
2023-03-01T13:59:33.030Z,49.83
2023-03-01T14:00:40.722Z,50.13
2023-03-01T14:01:43.995Z,50.53
2023-03-01T14:02:47.755Z,51.06
2023-03-01T14:03:51.599Z,50.45
2023-03-01T14:04:59.178Z,49.98
2023-03-01T14:06:19.093Z,49.94
2023-03-01T14:07:30.504Z,50.57
2023-03-01T14:08:34.606Z,50.93
2023-03-01T14:09:42.973Z,50.79
2023-03-01T14:10:57.515Z,50.42
2023-03-01T14:12:37.878Z,50.79
2023-03-01T14:14:09.546Z,50.77
2023-03-01T14:15:50.198Z,50.43
2023-03-01T14:17:08.661Z,50.54
2023-03-01T14:18:25.782Z,50.69
2023-03-01T14:19:33.913Z,50.76
2023-03-01T14:20:46.519Z,51.01
2023-03-01T14:21:49.075Z,50.44
2023-03-01T14:22:56.088Z,49.95
2023-03-01T14:24:00.060Z,50.06
2023-03-01T14:25:07.983Z,50.39
2023-03-01T14:26:13.691Z,49.93
2023-03-01T14:27:16.667Z,50.14
2023-03-01T14:28:27.900Z,50.21
2023-03-01T14:29:39.416Z,50.30